Time;durP1;ratioP1;P1;durP2;ratioP2;P2;SDS_P1;SDS_P2;PMS_P1;PMS_P2;Temp;Humidity;BMP_temperature;BMP_pressure;BME280_temperature;BME280_humidity;BME280_pressure;Samples;Min_cycle;Max_cycle;Signal;HPM_P1;HPM_P2
2022/03/09 00:00:29;;;;;;;7.50;2.90;;;2.60;99.90;;;;;;4789728;30;20058;-84
2022/03/09 00:02:55;;;;;;;7.78;2.25;;;3.60;99.90;;;;;;4789854;30;20054;-82
2022/03/09 00:05:21;;;;;;;5.50;2.20;;;2.60;99.90;;;;;;4790002;30;20104;-83
2022/03/09 00:07:46;;;;;;;7.03;2.50;;;2.50;99.90;;;;;;4790031;29;20117;-87
2022/03/09 00:10:12;;;;;;;6.70;2.55;;;2.40;99.90;;;;;;4789532;30;20112;-83
2022/03/09 00:12:38;;;;;;;8.10;2.38;;;2.40;99.90;;;;;;4789464;29;20059;-85
2022/03/09 00:15:04;;;;;;;7.10;2.30;;;2.30;99.90;;;;;;4789522;29;20146;-86
2022/03/09 00:17:30;;;;;;;6.10;2.20;;;2.30;99.90;;;;;;4789608;30;20476;-84
2022/03/09 00:19:55;;;;;;;7.78;2.65;;;2.30;99.90;;;;;;4789357;29;20055;-85
2022/03/09 00:22:21;;;;;;;6.60;2.88;;;2.50;99.90;;;;;;4788753;30;20052;-86
2022/03/09 00:24:47;;;;;;;8.65;2.25;;;2.20;99.90;;;;;;4789669;30;20437;-85
2022/03/09 00:27:12;;;;;;;6.30;2.38;;;2.20;99.90;;;;;;4789145;30;20122;-87
2022/03/09 00:29:38;;;;;;;6.65;2.60;;;3.00;99.90;;;;;;4773439;30;20105;-84
2022/03/09 00:32:06;;;;;;;6.68;2.72;;;2.20;99.90;;;;;;4789348;30;20475;-83
2022/03/09 00:34:32;;;;;;;7.10;2.55;;;2.20;99.90;;;;;;4789605;30;20047;-83
2022/03/09 00:36:58;;;;;;;9.90;2.75;;;2.10;99.90;;;;;;4789602;29;20112;-86
2022/03/09 00:39:24;;;;;;;6.28;2.20;;;2.10;99.90;;;;;;4789281;30;20051;-79
2022/03/09 00:41:49;;;;;;;6.55;2.63;;;2.10;99.90;;;;;;4788808;30;20125;-86
2022/03/09 00:44:15;;;;;;;7.28;3.08;;;2.00;99.90;;;;;;4789163;30;20559;-85
2022/03/09 00:46:41;;;;;;;6.95;2.65;;;2.30;99.90;;;;;;4773221;30;20480;-86
2022/03/09 00:49:06;;;;;;;7.72;2.90;;;2.00;99.90;;;;;;4772995;29;20051;-86
2022/03/09 00:51:32;;;;;;;6.90;2.60;;;1.90;99.90;;;;;;4789355;30;20051;-85
2022/03/09 00:53:58;;;;;;;10.32;2.85;;;3.00;99.90;;;;;;4789510;30;20412;-85
2022/03/09 00:56:24;;;;;;;7.35;2.70;;;1.90;99.90;;;;;;4788804;29;20130;-86
2022/03/09 00:58:49;;;;;;;8.15;2.70;;;1.80;99.90;;;;;;4788577;30;20051;-87
2022/03/09 01:01:15;;;;;;;6.30;2.22;;;1.80;99.90;;;;;;4772797;30;20055;-85
2022/03/09 01:03:41;;;;;;;8.77;2.78;;;1.80;99.90;;;;;;4788739;30;20051;-84
2022/03/09 01:06:07;;;;;;;8.82;3.30;;;1.80;99.90;;;;;;4788770;30;20051;-87
2022/03/09 01:08:33;;;;;;;7.32;2.63;;;1.70;99.90;;;;;;4772836;30;20072;-86
2022/03/09 01:10:59;;;;;;;7.60;3.10;;;1.70;99.90;;;;;;4788956;30;20047;-86
2022/03/09 01:13:25;;;;;;;7.20;2.80;;;1.70;99.90;;;;;;4788311;30;20059;-85
2022/03/09 01:15:50;;;;;;;9.23;2.90;;;1.70;99.90;;;;;;4788780;30;20055;-85
2022/03/09 01:18:16;;;;;;;10.23;2.85;;;1.70;99.90;;;;;;4789104;30;20057;-83
2022/03/09 01:20:42;;;;;;;7.25;2.75;;;1.60;99.90;;;;;;4789063;30;20055;-86
2022/03/09 01:23:08;;;;;;;8.63;3.33;;;1.60;99.90;;;;;;4773399;30;20051;-85
2022/03/09 01:25:34;;;;;;;8.32;3.47;;;2.90;99.90;;;;;;4789529;29;20390;-86
2022/03/09 01:27:59;;;;;;;9.02;3.05;;;1.60;99.90;;;;;;4790938;30;20059;-81
2022/03/09 01:30:25;;;;;;;8.38;2.97;;;1.60;99.90;;;;;;4791027;30;20097;-81
2022/03/09 01:32:51;;;;;;;7.60;2.90;;;1.60;99.90;;;;;;4791093;29;20058;-84
2022/03/09 01:35:17;;;;;;;7.50;2.60;;;2.30;99.90;;;;;;4781253;30;20035;-78
2022/03/09 01:37:45;;;;;;;9.23;3.30;;;2.40;99.90;;;;;;4810728;30;20027;-78
2022/03/09 01:40:12;;;;;;;7.93;2.83;;;2.30;99.90;;;;;;4810629;29;20039;-77
2022/03/09 01:42:41;;;;;;;8.10;3.13;;;1.50;99.90;;;;;;4809808;29;20040;-78
2022/03/09 01:45:09;;;;;;;7.68;3.15;;;1.50;99.90;;;;;;4799637;30;20051;-85
2022/03/09 01:47:35;;;;;;;8.45;2.90;;;1.40;99.90;;;;;;4789817;30;20055;-86
2022/03/09 01:50:02;;;;;;;7.65;2.90;;;1.40;99.90;;;;;;4773374;30;20567;-85
2022/03/09 01:52:28;;;;;;;6.78;2.78;;;1.40;99.90;;;;;;4772958;30;20141;-85
2022/03/09 01:54:54;;;;;;;10.93;3.25;;;1.30;99.90;;;;;;4788018;29;20180;-85
2022/03/09 01:57:21;;;;;;;6.55;2.67;;;1.30;99.90;;;;;;4788149;30;20047;-86
2022/03/09 01:59:51;;;;;;;8.95;3.53;;;1.30;99.90;;;;;;4786927;30;20086;-85
2022/03/09 02:02:17;;;;;;;9.35;3.38;;;1.30;99.90;;;;;;4788034;30;20043;-85
2022/03/09 02:04:43;;;;;;;7.68;3.33;;;1.30;99.90;;;;;;4771634;30;20635;-85
2022/03/09 02:07:10;;;;;;;9.82;3.50;;;1.30;99.90;;;;;;4787711;30;20105;-87
2022/03/09 02:09:43;;;;;;;9.73;3.10;;;1.30;99.90;;;;;;4788083;30;20047;-86
2022/03/09 02:12:18;;;;;;;10.27;3.28;;;1.30;99.90;;;;;;4787903;29;20059;-86
2022/03/09 02:14:46;;;;;;;8.38;3.30;;;1.30;99.90;;;;;;4787729;29;20070;-87
2022/03/09 02:17:16;;;;;;;8.90;3.45;;;1.20;99.90;;;;;;4786599;30;20043;-86
2022/03/09 02:19:43;;;;;;;8.73;3.40;;;1.20;99.90;;;;;;4771445;30;20488;-83
2022/03/09 02:22:41;;;;;;;8.88;3.08;;;1.20;99.90;;;;;;4771365;30;20043;-85
2022/03/09 02:25:12;;;;;;;10.43;3.03;;;1.20;99.90;;;;;;4771429;30;20052;-84
2022/03/09 02:27:39;;;;;;;8.77;3.28;;;1.10;99.90;;;;;;4787593;29;20047;-84
2022/03/09 02:30:06;;;;;;;9.10;3.45;;;1.10;99.90;;;;;;4787685;30;20047;-86
2022/03/09 02:32:32;;;;;;;8.32;3.10;;;1.10;99.90;;;;;;4787350;29;20113;-85
2022/03/09 02:34:57;;;;;;;8.93;3.15;;;1.10;99.90;;;;;;4787158;30;20043;-86
2022/03/09 02:37:23;;;;;;;9.13;3.08;;;1.10;99.90;;;;;;4787612;30;20505;-84
2022/03/09 02:39:49;;;;;;;10.95;3.38;;;1.00;99.90;;;;;;4787396;30;20401;-85
2022/03/09 02:42:15;;;;;;;9.27;3.42;;;2.10;99.90;;;;;;4787451;30;20050;-85
2022/03/09 02:44:41;;;;;;;10.85;3.80;;;1.00;99.90;;;;;;4787433;30;20051;-85
2022/03/09 02:47:06;;;;;;;8.88;3.38;;;1.00;99.90;;;;;;4787047;30;20062;-85
2022/03/09 02:49:33;;;;;;;9.90;2.95;;;1.00;99.90;;;;;;4787562;30;20083;-86
2022/03/09 02:51:59;;;;;;;8.05;3.30;;;1.00;99.90;;;;;;4787239;30;20520;-86
2022/03/09 02:54:24;;;;;;;9.75;3.35;;;1.00;99.90;;;;;;4787413;30;20065;-85
2022/03/09 02:56:50;;;;;;;7.82;3.15;;;1.00;99.90;;;;;;4787347;29;20047;-86
2022/03/09 02:59:16;;;;;;;8.93;3.90;;;0.90;99.90;;;;;;4787029;30;20051;-87
2022/03/09 03:01:41;;;;;;;8.85;3.35;;;0.90;99.90;;;;;;4771304;30;20458;-86
2022/03/09 03:04:10;;;;;;;9.68;3.97;;;1.10;99.90;;;;;;4770900;30;20370;-86
2022/03/09 03:06:35;;;;;;;9.63;3.60;;;0.90;99.90;;;;;;4787220;30;20080;-83
2022/03/09 03:09:01;;;;;;;10.88;4.40;;;0.90;99.90;;;;;;4787269;29;20126;-82
2022/03/09 03:11:27;;;;;;;9.05;3.50;;;1.90;99.90;;;;;;4787261;30;20070;-86
2022/03/09 03:13:53;;;;;;;11.27;4.25;;;0.90;99.90;;;;;;4770967;29;20066;-85
2022/03/09 03:16:18;;;;;;;8.20;3.40;;;0.80;99.90;;;;;;4787452;29;20143;-83
2022/03/09 03:18:44;;;;;;;9.63;4.13;;;0.80;99.90;;;;;;4786737;29;20386;-81
2022/03/09 03:21:10;;;;;;;8.68;3.42;;;0.80;99.90;;;;;;4787236;30;20109;-87
2022/03/09 03:23:36;;;;;;;11.38;4.32;;;0.80;99.90;;;;;;4787383;29;20039;-87
2022/03/09 03:26:04;;;;;;;10.30;4.53;;;1.80;99.90;;;;;;4788419;30;20093;-85
2022/03/09 03:28:31;;;;;;;11.23;4.43;;;0.80;99.90;;;;;;4789286;29;20047;-83
2022/03/09 03:30:57;;;;;;;11.18;4.88;;;0.70;99.90;;;;;;4790071;30;20167;-80
2022/03/09 03:33:23;;;;;;;14.45;5.13;;;0.70;99.90;;;;;;4790555;29;20130;-84
2022/03/09 03:35:49;;;;;;;9.82;3.80;;;0.70;99.90;;;;;;4774029;30;20051;-86
2022/03/09 03:38:16;;;;;;;9.23;4.13;;;0.60;99.90;;;;;;4791501;29;20049;-87
2022/03/09 03:40:41;;;;;;;10.20;4.15;;;0.60;99.90;;;;;;4790331;30;20515;-86
2022/03/09 03:43:07;;;;;;;10.00;3.50;;;0.60;99.90;;;;;;4790430;30;20059;-78
2022/03/09 03:45:33;;;;;;;7.90;3.30;;;0.50;99.90;;;;;;4790146;29;20074;-80
2022/03/09 03:47:59;;;;;;;8.57;3.38;;;0.50;99.90;;;;;;4790601;30;20073;-79
2022/03/09 03:50:26;;;;;;;10.13;3.88;;;0.50;99.90;;;;;;4773758;30;20052;-83
2022/03/09 03:52:52;;;;;;;10.98;4.07;;;0.50;99.90;;;;;;4790109;29;20051;-87
2022/03/09 03:55:18;;;;;;;10.68;4.20;;;0.40;99.90;;;;;;4790163;30;20039;-84
2022/03/09 03:57:43;;;;;;;9.80;3.83;;;0.40;99.90;;;;;;4790214;29;20074;-82
2022/03/09 04:00:10;;;;;;;9.75;4.00;;;0.40;99.90;;;;;;4790169;29;20055;-87
2022/03/09 04:02:36;;;;;;;9.35;3.88;;;0.30;99.90;;;;;;4790291;30;20516;-87
2022/03/09 04:05:02;;;;;;;10.07;3.88;;;0.30;99.90;;;;;;4790153;30;20134;-86
2022/03/09 04:07:28;;;;;;;9.50;3.88;;;0.30;99.90;;;;;;4789925;30;20051;-81
2022/03/09 04:09:54;;;;;;;10.95;4.53;;;0.30;99.90;;;;;;4790107;30;20505;-84
2022/03/09 04:12:20;;;;;;;10.68;3.95;;;0.20;99.90;;;;;;4793959;29;20059;-81
2022/03/09 04:14:46;;;;;;;10.70;4.20;;;0.20;99.90;;;;;;4803689;30;20047;-81
2022/03/09 04:17:12;;;;;;;9.00;3.22;;;0.20;99.90;;;;;;4802733;29;20062;-81
2022/03/09 04:19:37;;;;;;;9.75;4.15;;;0.10;99.90;;;;;;4784367;30;20393;-77
2022/03/09 04:22:03;;;;;;;8.57;3.53;;;0.20;99.90;;;;;;4774013;30;20193;-80
2022/03/09 04:24:29;;;;;;;9.65;3.42;;;0.20;99.90;;;;;;4790180;30;20044;-84
2022/03/09 04:26:55;;;;;;;12.13;3.33;;;0.50;99.90;;;;;;4789858;29;20051;-78
2022/03/09 04:29:20;;;;;;;9.95;3.47;;;0.20;99.90;;;;;;4788301;29;20059;-84
2022/03/09 04:31:46;;;;;;;10.25;3.28;;;0.20;99.90;;;;;;4773592;30;20078;-84
2022/03/09 04:34:12;;;;;;;8.73;3.35;;;0.10;99.90;;;;;;4789514;30;20051;-83
2022/03/09 04:36:38;;;;;;;8.70;3.33;;;0.10;99.90;;;;;;4789404;30;20046;-86
2022/03/09 04:39:05;;;;;;;9.25;3.50;;;0.10;99.90;;;;;;4788385;29;20044;-86
2022/03/09 04:41:30;;;;;;;11.02;3.53;;;0.10;99.90;;;;;;4789298;29;20078;-83
2022/03/09 04:43:56;;;;;;;8.13;3.40;;;0.10;99.90;;;;;;4789418;30;20513;-81
2022/03/09 04:46:22;;;;;;;8.73;3.60;;;0.00;99.90;;;;;;4789226;29;20132;-84
2022/03/09 04:48:49;;;;;;;10.73;3.60;;;0.00;99.90;;;;;;4789367;30;20051;-80
2022/03/09 04:51:15;;;;;;;9.77;3.40;;;1.50;99.90;;;;;;4789075;30;20055;-85
2022/03/09 04:53:41;;;;;;;11.07;3.72;;;1.00;99.90;;;;;;4772588;30;20492;-81
2022/03/09 04:56:07;;;;;;;11.77;3.40;;;0.90;99.90;;;;;;4788955;30;20093;-86
2022/03/09 04:58:33;;;;;;;9.95;3.70;;;0.10;99.90;;;;;;4792686;30;20051;-85
2022/03/09 05:00:58;;;;;;;12.55;4.18;;;0.10;99.90;;;;;;4789102;29;20104;-84
2022/03/09 05:03:24;;;;;;;14.25;4.03;;;0.10;99.90;;;;;;4788501;29;20048;-84
2022/03/09 05:05:50;;;;;;;9.07;3.53;;;0.10;99.90;;;;;;4772785;30;20511;-80
2022/03/09 05:08:16;;;;;;;9.38;3.22;;;0.10;99.90;;;;;;4788445;30;20463;-81
2022/03/09 05:10:41;;;;;;;9.48;3.63;;;0.80;99.90;;;;;;4787340;30;20539;-85
2022/03/09 05:13:07;;;;;;;8.55;3.85;;;0.00;99.90;;;;;;4787453;29;20094;-81
2022/03/09 05:15:33;;;;;;;9.57;3.20;;;0.00;99.90;;;;;;4788697;30;20051;-81
2022/03/09 05:17:59;;;;;;;9.88;3.67;;;0.00;99.90;;;;;;4788667;29;20043;-81
2022/03/09 05:20:24;;;;;;;10.40;3.58;;;-0.10;99.90;;;;;;4788583;29;20108;-84
2022/03/09 05:22:51;;;;;;;9.95;3.55;;;-0.10;99.90;;;;;;4788802;30;20127;-82
2022/03/09 05:25:18;;;;;;;9.88;3.55;;;1.00;99.90;;;;;;4787828;30;20087;-86
2022/03/09 05:27:44;;;;;;;10.13;3.13;;;-0.20;99.90;;;;;;4788667;30;20050;-85
2022/03/09 05:30:10;;;;;;;10.75;4.22;;;-0.20;99.90;;;;;;4788582;30;20108;-86
2022/03/09 05:32:36;;;;;;;11.13;4.30;;;-0.20;99.90;;;;;;4787274;29;20055;-86
2022/03/09 05:35:03;;;;;;;8.85;3.72;;;-0.20;99.90;;;;;;4772493;30;20189;-83
2022/03/09 05:37:52;;;;;;;9.27;3.40;;;-0.20;99.90;;;;;;4788442;30;20130;-84
2022/03/09 05:40:18;;;;;;;10.10;3.83;;;-0.20;99.90;;;;;;4788164;29;20047;-84
2022/03/09 05:42:44;;;;;;;10.38;3.97;;;-0.20;99.90;;;;;;4788242;29;20512;-83
2022/03/09 05:45:10;;;;;;;10.25;3.47;;;-0.20;99.90;;;;;;4772184;30;20058;-84
2022/03/09 05:47:36;;;;;;;9.27;3.63;;;-0.20;99.90;;;;;;4772172;29;20059;-84
2022/03/09 05:50:03;;;;;;;10.35;3.65;;;-0.20;99.90;;;;;;4772243;30;20051;-84
2022/03/09 05:52:29;;;;;;;18.90;4.43;;;-0.30;99.90;;;;;;4789097;30;20051;-84
2022/03/09 05:54:54;;;;;;;9.38;3.80;;;-0.30;99.90;;;;;;4788116;30;20058;-85
2022/03/09 05:57:21;;;;;;;7.95;3.30;;;-0.30;99.90;;;;;;4787512;30;20184;-85
2022/03/09 05:59:48;;;;;;;9.45;3.92;;;-0.30;99.90;;;;;;4788595;30;20415;-83
2022/03/09 06:02:14;;;;;;;9.50;4.32;;;-0.30;99.90;;;;;;4787719;29;20059;-85
2022/03/09 06:04:39;;;;;;;12.18;4.43;;;-0.30;99.90;;;;;;4788214;30;20058;-85
2022/03/09 06:07:05;;;;;;;10.60;4.00;;;-0.30;99.90;;;;;;4772027;30;20471;-85
2022/03/09 06:09:31;;;;;;;9.52;3.60;;;-0.30;99.90;;;;;;4788107;30;20047;-84
2022/03/09 06:11:57;;;;;;;8.40;3.72;;;-0.30;99.90;;;;;;4787608;30;20051;-80
2022/03/09 06:14:22;;;;;;;9.43;3.95;;;-0.30;99.90;;;;;;4771340;30;20062;-85
2022/03/09 06:16:48;;;;;;;11.02;4.72;;;-0.30;99.90;;;;;;4787568;30;20051;-86
2022/03/09 06:19:15;;;;;;;13.82;4.47;;;-0.30;99.90;;;;;;4786831;30;20051;-85
2022/03/09 06:21:41;;;;;;;11.05;4.63;;;-0.30;99.90;;;;;;4787909;29;20408;-86
2022/03/09 06:24:07;;;;;;;10.55;4.32;;;-0.30;99.90;;;;;;4771645;30;20055;-81
2022/03/09 06:26:33;;;;;;;12.27;4.28;;;-0.30;99.90;;;;;;4787377;30;20059;-85
2022/03/09 06:28:59;;;;;;;14.10;5.32;;;-0.30;99.90;;;;;;4787062;30;20486;-85
2022/03/09 06:31:28;;;;;;;11.07;5.03;;;-0.30;99.90;;;;;;4787673;29;20062;-84
2022/03/09 06:33:54;;;;;;;11.52;4.20;;;-0.20;99.90;;;;;;4750013;30;20470;-85
2022/03/09 06:36:20;;;;;;;12.35;5.88;;;-0.20;99.90;;;;;;4749883;30;20151;-81
2022/03/09 06:38:45;;;;;;;11.48;4.95;;;-0.20;99.90;;;;;;4749512;30;20142;-83
2022/03/09 06:41:12;;;;;;;13.55;4.93;;;0.70;99.90;;;;;;4749705;30;20126;-83
2022/03/09 06:43:38;;;;;;;11.05;4.85;;;-0.20;99.90;;;;;;4749486;30;20060;-78
2022/03/09 06:46:04;;;;;;;10.32;4.60;;;-0.20;99.90;;;;;;4749768;30;20429;-82
2022/03/09 06:48:30;;;;;;;13.93;5.32;;;-0.10;99.90;;;;;;4749706;30;20067;-80
2022/03/09 06:50:55;;;;;;;12.40;5.68;;;-0.10;99.90;;;;;;4749826;30;20421;-84
2022/03/09 06:53:21;;;;;;;12.75;4.90;;;1.10;99.90;;;;;;4749840;30;20056;-81
2022/03/09 06:55:47;;;;;;;11.75;5.15;;;0.00;99.90;;;;;;4757346;30;20126;-84
2022/03/09 06:58:15;;;;;;;12.95;5.15;;;0.60;99.90;;;;;;4784861;30;20059;-84
2022/03/09 07:00:42;;;;;;;10.18;4.90;;;1.00;99.90;;;;;;4784999;29;20051;-84
2022/03/09 07:03:08;;;;;;;15.75;5.80;;;0.10;99.90;;;;;;4771420;30;20070;-87
2022/03/09 07:05:34;;;;;;;10.93;5.20;;;0.10;99.90;;;;;;4790077;29;20067;-85
2022/03/09 07:08:00;;;;;;;12.77;5.57;;;1.00;99.90;;;;;;4774484;30;20056;-85
2022/03/09 07:10:27;;;;;;;12.80;5.50;;;0.20;99.90;;;;;;4794969;29;20580;-85
2022/03/09 07:12:53;;;;;;;14.10;6.35;;;0.30;99.90;;;;;;4827928;29;20125;-86
2022/03/09 07:15:19;;;;;;;14.52;6.53;;;0.40;99.90;;;;;;4826874;29;20062;-87
2022/03/09 07:17:47;;;;;;;12.70;5.78;;;0.50;99.90;;;;;;4826596;29;20444;-83
2022/03/09 07:20:13;;;;;;;13.35;5.82;;;0.60;99.90;;;;;;4827283;29;20060;-85
2022/03/09 07:22:40;;;;;;;13.32;5.60;;;0.70;99.90;;;;;;4797014;29;20504;-80
2022/03/09 07:25:06;;;;;;;15.68;5.63;;;0.80;99.90;;;;;;4806400;29;20137;-82
2022/03/09 07:27:32;;;;;;;13.20;6.07;;;0.80;99.90;;;;;;4791757;29;20487;-82
2022/03/09 07:29:58;;;;;;;11.90;5.45;;;1.40;99.90;;;;;;4790517;29;20059;-77
2022/03/09 07:32:24;;;;;;;12.68;5.97;;;1.00;99.90;;;;;;4789942;29;20054;-81
2022/03/09 07:34:49;;;;;;;11.57;5.40;;;1.10;99.90;;;;;;4790682;29;20150;-83
2022/03/09 07:37:15;;;;;;;12.18;5.40;;;2.70;99.90;;;;;;4806429;29;20042;-83
2022/03/09 07:39:41;;;;;;;14.32;5.80;;;2.50;99.90;;;;;;4790833;29;20096;-82
2022/03/09 07:42:07;;;;;;;13.02;5.82;;;1.60;99.90;;;;;;4789437;29;20041;-80
2022/03/09 07:44:32;;;;;;;12.88;6.13;;;1.60;99.90;;;;;;4804950;29;20119;-79
2022/03/09 07:46:58;;;;;;;11.65;5.47;;;1.70;99.90;;;;;;4788686;29;20062;-80
2022/03/09 07:49:24;;;;;;;11.88;5.60;;;1.70;99.90;;;;;;4789061;29;20066;-80
2022/03/09 07:51:49;;;;;;;11.65;5.07;;;1.80;99.90;;;;;;4789627;29;20094;-79
2022/03/09 07:54:16;;;;;;;13.25;5.53;;;1.80;99.90;;;;;;4803963;29;20099;-78
2022/03/09 07:56:42;;;;;;;12.73;6.07;;;1.90;99.90;;;;;;4805858;29;20085;-82
2022/03/09 07:59:11;;;;;;;14.15;5.65;;;2.00;99.90;;;;;;4803810;29;20051;-81
2022/03/09 08:01:37;;;;;;;17.17;7.03;;;2.10;99.90;;;;;;4804631;29;20093;-83
2022/03/09 08:04:03;;;;;;;11.57;5.40;;;2.20;99.90;;;;;;4803538;29;20412;-81
2022/03/09 08:06:29;;;;;;;11.57;5.35;;;2.30;99.90;;;;;;4804321;29;20043;-80
2022/03/09 08:08:55;;;;;;;12.90;5.28;;;2.40;99.90;;;;;;4806561;29;20055;-82
2022/03/09 08:11:22;;;;;;;10.90;5.28;;;2.50;99.90;;;;;;4789359;29;20151;-80
2022/03/09 08:13:48;;;;;;;12.50;5.47;;;2.70;99.90;;;;;;4805603;29;20067;-82
2022/03/09 08:16:14;;;;;;;11.80;5.38;;;2.80;99.90;;;;;;4820127;29;20091;-83
2022/03/09 08:18:40;;;;;;;14.38;5.80;;;3.00;99.90;;;;;;4822636;29;20051;-83
2022/03/09 08:21:05;;;;;;;12.95;5.10;;;3.00;99.90;;;;;;4803754;29;20062;-84
2022/03/09 08:23:31;;;;;;;12.65;5.40;;;4.10;99.90;;;;;;4806215;29;20054;-84
2022/03/09 08:25:57;;;;;;;13.40;5.65;;;3.70;99.90;;;;;;4807132;29;20062;-82
2022/03/09 08:28:22;;;;;;;13.23;5.68;;;4.10;99.90;;;;;;4807272;29;20076;-84
2022/03/09 08:30:48;;;;;;;13.13;5.95;;;3.50;99.90;;;;;;4790779;29;20050;-82
2022/03/09 08:33:14;;;;;;;12.52;5.43;;;3.60;99.90;;;;;;4788470;29;20432;-85
2022/03/09 08:35:40;;;;;;;10.68;4.78;;;3.70;99.90;;;;;;4790193;29;20119;-84
2022/03/09 08:38:06;;;;;;;11.85;4.78;;;3.80;99.90;;;;;;4791333;29;20048;-84
2022/03/09 08:40:32;;;;;;;12.18;5.05;;;3.90;99.90;;;;;;4808046;29;20074;-84
2022/03/09 08:43:13;;;;;;;12.10;4.45;;;4.00;99.90;;;;;;4790920;29;20042;-83
2022/03/09 08:45:45;;;;;;;11.05;4.50;;;3.70;99.90;;;;;;4807428;29;20153;-84
2022/03/09 08:48:11;;;;;;;9.85;4.60;;;5.30;99.90;;;;;;4807005;29;20054;-79
2022/03/09 08:50:37;;;;;;;12.57;4.65;;;4.40;99.90;;;;;;4800949;29;20062;-83
2022/03/09 08:53:03;;;;;;;11.32;4.60;;;4.50;99.90;;;;;;4802966;29;20034;-81
2022/03/09 08:55:29;;;;;;;11.63;4.43;;;4.70;99.90;;;;;;4802203;29;20113;-77
2022/03/09 08:57:55;;;;;;;10.30;3.85;;;4.80;99.90;;;;;;4801100;29;20104;-79
2022/03/09 09:00:22;;;;;;;11.95;3.97;;;5.00;99.90;;;;;;4786381;29;20515;-78
2022/03/09 09:02:48;;;;;;;10.27;3.83;;;5.10;99.90;;;;;;4798969;29;20488;-77
2022/03/09 09:05:14;;;;;;;9.02;3.92;;;5.20;99.90;;;;;;4800865;29;20137;-83
2022/03/09 09:07:39;;;;;;;9.60;3.75;;;5.60;99.90;;;;;;4785302;29;20682;-80
2022/03/09 09:10:06;;;;;;;11.60;3.83;;;6.30;99.90;;;;;;4786653;29;20058;-78
2022/03/09 09:12:31;;;;;;;11.60;4.43;;;5.70;99.90;;;;;;4798713;29;20526;-75
2022/03/09 09:14:57;;;;;;;10.23;3.90;;;5.90;99.30;;;;;;4801079;29;20051;-75
2022/03/09 09:17:23;;;;;;;14.68;4.47;;;6.10;93.40;;;;;;4784599;29;20059;-87
2022/03/09 09:19:52;;;;;;;10.77;3.80;;;6.30;92.70;;;;;;4801794;29;20047;-79
2022/03/09 09:22:18;;;;;;;10.40;3.53;;;6.60;93.70;;;;;;4783999;29;20065;-80
2022/03/09 09:24:43;;;;;;;10.90;3.55;;;7.30;92.30;;;;;;4801033;29;20149;-80
2022/03/09 09:27:09;;;;;;;14.00;4.07;;;7.10;85.90;;;;;;4802796;29;20560;-79
2022/03/09 09:29:35;;;;;;;14.40;4.60;;;7.20;83.80;;;;;;4802317;29;20054;-79
2022/03/09 09:32:02;;;;;;;10.65;4.63;;;8.30;79.00;;;;;;4802350;29;20058;-83
2022/03/09 09:34:28;;;;;;;9.00;3.85;;;7.20;76.90;;;;;;4802623;29;20086;-81
2022/03/09 09:36:54;;;;;;;10.18;3.90;;;7.40;79.70;;;;;;4785580;29;20063;-80
2022/03/09 09:39:20;;;;;;;9.43;3.58;;;7.40;74.10;;;;;;4786840;29;20057;-80
2022/03/09 09:41:49;;;;;;;11.43;4.55;;;7.50;74.50;;;;;;4801621;29;20112;-75
2022/03/09 09:44:15;;;;;;;11.40;4.40;;;7.60;74.40;;;;;;4786338;29;20058;-81
2022/03/09 09:46:42;;;;;;;10.43;4.63;;;7.70;70.40;;;;;;4802517;29;20554;-80
2022/03/09 09:49:09;;;;;;;9.88;3.95;;;7.80;67.10;;;;;;4786596;29;20145;-78
2022/03/09 09:51:37;;;;;;;9.85;4.07;;;7.80;66.00;;;;;;4785282;29;20106;-83
2022/03/09 09:54:05;;;;;;;10.07;4.40;;;7.90;64.90;;;;;;4800779;29;20150;-79
2022/03/09 09:56:34;;;;;;;10.30;4.30;;;8.20;71.70;;;;;;4802222;29;20055;-80
2022/03/09 09:59:00;;;;;;;11.48;4.50;;;8.30;66.60;;;;;;4802595;29;20050;-78
2022/03/09 10:01:27;;;;;;;9.52;3.25;;;8.10;61.30;;;;;;4783293;29;20062;-77
2022/03/09 10:03:53;;;;;;;9.60;4.13;;;8.10;66.80;;;;;;4800993;29;20050;-80
2022/03/09 10:06:19;;;;;;;10.98;3.80;;;8.30;65.50;;;;;;4801548;29;20054;-75
2022/03/09 10:09:03;;;;;;;11.23;4.07;;;8.60;63.60;;;;;;4785688;29;20137;-78
2022/03/09 10:11:50;;;;;;;10.25;3.38;;;8.40;60.80;;;;;;4801841;29;20043;-78
2022/03/09 10:14:18;;;;;;;10.60;4.43;;;8.50;62.00;;;;;;4801676;29;20142;-80
2022/03/09 10:17:01;;;;;;;10.35;3.65;;;8.60;62.90;;;;;;4798529;29;20453;-77
2022/03/09 10:19:34;;;;;;;11.93;4.22;;;8.60;64.60;;;;;;4785720;29;20050;-79
2022/03/09 10:22:23;;;;;;;11.10;4.45;;;8.70;60.90;;;;;;4801246;29;20054;-79
2022/03/09 10:24:49;;;;;;;13.65;4.43;;;8.80;59.90;;;;;;4780940;29;20420;-77
2022/03/09 10:27:34;;;;;;;12.75;4.20;;;8.90;62.30;;;;;;4801120;29;21221;-79
2022/03/09 10:30:02;;;;;;;10.80;4.22;;;8.90;61.30;;;;;;4785314;29;20054;-78
2022/03/09 10:32:47;;;;;;;12.73;4.25;;;9.60;64.50;;;;;;4801047;29;20051;-78
2022/03/09 10:35:19;;;;;;;10.95;4.32;;;9.10;64.30;;;;;;4801303;29;20583;-78
2022/03/09 10:37:47;;;;;;;11.80;4.95;;;9.20;59.00;;;;;;4801878;29;20047;-80
2022/03/09 10:40:16;;;;;;;11.07;4.47;;;9.20;58.90;;;;;;4784661;29;20104;-81
2022/03/09 10:42:43;;;;;;;9.85;4.25;;;9.30;61.30;;;;;;4784151;29;20054;-78
2022/03/09 10:45:09;;;;;;;12.25;5.63;;;9.40;63.30;;;;;;4802930;29;20061;-75
2022/03/09 10:47:42;;;;;;;11.43;3.78;;;9.40;59.50;;;;;;4800620;29;20100;-76
2022/03/09 10:50:17;;;;;;;10.23;4.03;;;9.50;59.70;;;;;;4781971;29;20059;-78
2022/03/09 10:52:59;;;;;;;12.23;4.07;;;9.50;59.60;;;;;;4799949;29;20055;-77
2022/03/09 10:55:36;;;;;;;9.40;3.95;;;9.50;62.50;;;;;;4802072;29;20050;-77
2022/03/09 10:58:22;;;;;;;11.23;4.07;;;9.60;57.10;;;;;;4785111;29;20062;-78
2022/03/09 11:00:50;;;;;;;10.52;4.35;;;9.70;55.70;;;;;;4801208;29;20133;-76
2022/03/09 11:03:18;;;;;;;10.90;3.90;;;9.70;54.50;;;;;;4799119;29;20509;-84
2022/03/09 11:05:56;;;;;;;12.15;4.72;;;9.70;56.00;;;;;;4785723;29;20051;-78
2022/03/09 11:08:26;;;;;;;10.48;4.28;;;9.70;54.10;;;;;;4785339;29;20512;-78
2022/03/09 11:10:52;;;;;;;11.10;4.35;;;9.80;55.00;;;;;;4801296;29;20073;-76
2022/03/09 11:13:22;;;;;;;11.77;4.35;;;9.90;58.60;;;;;;4800224;29;20062;-77
2022/03/09 11:15:48;;;;;;;11.82;4.55;;;10.00;56.80;;;;;;4778466;29;20098;-76
2022/03/09 11:18:19;;;;;;;10.90;4.38;;;10.20;55.20;;;;;;4801774;29;20054;-78
2022/03/09 11:20:49;;;;;;;13.55;4.10;;;10.30;57.20;;;;;;4784523;29;20519;-78
2022/03/09 11:23:16;;;;;;;10.70;4.13;;;10.30;59.40;;;;;;4784521;29;20093;-78
2022/03/09 11:25:49;;;;;;;11.73;4.18;;;11.10;56.60;;;;;;4801596;29;20639;-77
2022/03/09 11:28:26;;;;;;;12.20;4.47;;;10.60;57.70;;;;;;4780990;29;20055;-79
2022/03/09 11:30:57;;;;;;;13.93;4.68;;;10.60;54.70;;;;;;4800284;29;20199;-78
2022/03/09 11:33:36;;;;;;;10.48;4.07;;;11.20;56.10;;;;;;4783864;29;20061;-77
2022/03/09 11:36:15;;;;;;;9.93;4.53;;;11.00;54.30;;;;;;4785673;29;20051;-75
2022/03/09 11:38:41;;;;;;;13.27;4.30;;;10.90;55.30;;;;;;4785384;29;20127;-75
2022/03/09 11:41:12;;;;;;;9.77;4.43;;;11.00;57.20;;;;;;4801086;29;20440;-75
2022/03/09 11:43:38;;;;;;;8.77;3.83;;;11.00;54.10;;;;;;4799934;29;20047;-74
2022/03/09 11:46:04;;;;;;;12.10;5.88;;;11.00;54.70;;;;;;4788903;29;20142;-74
2022/03/09 11:48:48;;;;;;;14.95;5.80;;;11.10;55.40;;;;;;4789584;29;20496;-73
2022/03/09 11:51:14;;;;;;;12.27;5.30;;;11.30;54.90;;;;;;4789575;29;20149;-78
2022/03/09 11:53:46;;;;;;;11.25;5.47;;;11.30;56.10;;;;;;4801263;29;20108;-77
2022/03/09 11:56:27;;;;;;;10.65;4.97;;;11.40;56.00;;;;;;4803044;29;20046;-78
2022/03/09 11:59:32;;;;;;;8.90;3.95;;;11.40;53.10;;;;;;4803172;29;20395;-78
2022/03/09 12:01:58;;;;;;;9.95;4.30;;;11.60;53.60;;;;;;4799061;29;20074;-79
2022/03/09 12:04:42;;;;;;;12.25;4.88;;;11.90;55.90;;;;;;4785897;29;20047;-80
2022/03/09 12:07:33;;;;;;;10.35;4.65;;;11.80;53.00;;;;;;4769142;29;20086;-82
2022/03/09 12:10:05;;;;;;;14.07;6.18;;;11.70;53.50;;;;;;4772327;29;20086;-81
2022/03/09 12:12:33;;;;;;;11.77;5.32;;;11.90;53.70;;;;;;4791781;29;20069;-79
2022/03/09 12:15:02;;;;;;;11.75;4.65;;;11.90;49.50;;;;;;4800889;29;20059;-82
2022/03/09 12:17:37;;;;;;;11.55;5.00;;;12.00;52.50;;;;;;4801174;29;20167;-80
2022/03/09 12:20:30;;;;;;;11.70;4.65;;;12.10;51.20;;;;;;4792805;29;20059;-79
2022/03/09 12:22:59;;;;;;;11.40;5.03;;;12.20;49.80;;;;;;4779106;29;20061;-82
2022/03/09 12:25:41;;;;;;;11.30;5.38;;;12.40;50.30;;;;;;4785119;29;20452;-79
2022/03/09 12:28:28;;;;;;;11.85;5.05;;;12.10;46.70;;;;;;4770027;29;20489;-78
2022/03/09 12:31:09;;;;;;;11.00;5.20;;;12.30;48.90;;;;;;4755342;30;20406;-80
2022/03/09 12:33:36;;;;;;;11.47;5.23;;;12.10;48.70;;;;;;4800890;29;20066;-78
2022/03/09 12:36:09;;;;;;;11.45;5.25;;;12.20;50.30;;;;;;4788676;29;20111;-78
2022/03/09 12:38:36;;;;;;;9.48;3.75;;;12.20;48.50;;;;;;4803748;29;20062;-77
2022/03/09 12:41:02;;;;;;;8.80;3.25;;;12.30;47.10;;;;;;4787928;29;20054;-78
2022/03/09 12:43:50;;;;;;;10.52;3.85;;;12.40;49.40;;;;;;4787156;29;20073;-79
2022/03/09 12:46:16;;;;;;;11.23;5.10;;;12.50;46.80;;;;;;4788546;29;20061;-77
2022/03/09 12:48:42;;;;;;;11.95;5.50;;;12.40;47.80;;;;;;4788847;29;20133;-79
2022/03/09 12:51:08;;;;;;;10.93;4.40;;;12.50;48.90;;;;;;4804354;29;20081;-78